sensor_id;sensor_type;location;lat;lon;timestamp;pressure;altitude;pressure_sealevel;temperature;humidity
26192;BME280;13935;55.672;37.764;2023-05-23T01:01:19;100469.03;;;13.94;100.00
26192;BME280;13935;55.672;37.764;2023-05-23T01:06:16;100466.66;;;13.92;100.00
26192;BME280;13935;55.672;37.764;2023-05-23T01:11:44;100461.50;;;13.91;100.00
26192;BME280;13935;55.672;37.764;2023-05-23T01:16:36;100471.41;;;13.78;100.00
26192;BME280;13935;55.672;37.764;2023-05-23T01:21:30;100466.63;;;13.82;100.00
26192;BME280;13935;55.672;37.764;2023-05-23T04:23:36;100408.84;;;17.24;100.00
26192;BME280;13935;55.672;37.764;2023-05-23T04:24:44;100417.13;;;17.34;100.00
26192;BME280;13935;55.672;37.764;2023-05-23T04:26:22;100418.66;;;17.42;100.00
26192;BME280;13935;55.672;37.764;2023-05-23T04:31:14;100417.44;;;17.43;100.00
26192;BME280;13935;55.672;37.764;2023-05-23T04:32:32;100420.50;;;17.52;100.00
26192;BME280;13935;55.672;37.764;2023-05-23T04:33:47;100411.44;;;17.41;100.00
26192;BME280;13935;55.672;37.764;2023-05-23T04:34:55;100413.38;;;17.48;100.00
26192;BME280;13935;55.672;37.764;2023-05-23T04:35:58;100408.44;;;17.29;100.00
26192;BME280;13935;55.672;37.764;2023-05-23T04:37:01;100411.88;;;17.40;100.00
26192;BME280;13935;55.672;37.764;2023-05-23T04:38:07;100413.78;;;17.46;100.00
26192;BME280;13935;55.672;37.764;2023-05-23T04:39:10;100405.09;;;17.41;100.00
26192;BME280;13935;55.672;37.764;2023-05-23T04:40:25;100411.50;;;17.38;100.00
26192;BME280;13935;55.672;37.764;2023-05-23T04:41:50;100407.84;;;17.44;100.00
26192;BME280;13935;55.672;37.764;2023-05-23T04:43:25;100410.97;;;17.46;100.00
26192;BME280;13935;55.672;37.764;2023-05-23T04:44:42;100403.50;;;17.40;100.00
26192;BME280;13935;55.672;37.764;2023-05-23T04:46:36;100404.66;;;17.42;100.00
26192;BME280;13935;55.672;37.764;2023-05-23T04:51:11;100403.81;;;17.45;100.00
26192;BME280;13935;55.672;37.764;2023-05-23T04:52:25;100405.91;;;17.38;100.00
26192;BME280;13935;55.672;37.764;2023-05-23T04:53:29;100431.44;;;17.43;100.00
26192;BME280;13935;55.672;37.764;2023-05-23T04:54:31;100436.31;;;17.36;100.00
26192;BME280;13935;55.672;37.764;2023-05-23T04:55:38;100426.03;;;17.22;100.00
26192;BME280;13935;55.672;37.764;2023-05-23T04:56:45;100416.53;;;17.16;100.00
26192;BME280;13935;55.672;37.764;2023-05-23T05:13:15;100460.44;;;17.23;100.00
26192;BME280;13935;55.672;37.764;2023-05-23T05:14:26;100453.97;;;17.29;100.00
26192;BME280;13935;55.672;37.764;2023-05-23T05:51:05;100434.41;;;17.59;100.00
26192;BME280;13935;55.672;37.764;2023-05-23T05:52:37;100439.31;;;17.52;100.00
26192;BME280;13935;55.672;37.764;2023-05-23T05:54:01;100434.41;;;17.59;100.00
26192;BME280;13935;55.672;37.764;2023-05-23T05:55:08;100428.41;;;17.61;100.00
26192;BME280;13935;55.672;37.764;2023-05-23T05:56:19;100443.91;;;17.65;100.00
26192;BME280;13935;55.672;37.764;2023-05-23T05:57:23;100421.84;;;17.71;100.00
26192;BME280;13935;55.672;37.764;2023-05-23T05:58:26;100424.13;;;17.79;100.00
26192;BME280;13935;55.672;37.764;2023-05-23T05:59:32;100421.63;;;17.88;100.00
26192;BME280;13935;55.672;37.764;2023-05-23T06:00:35;100425.25;;;17.85;100.00
26192;BME280;13935;55.672;37.764;2023-05-23T06:01:43;100418.34;;;17.93;100.00
26192;BME280;13935;55.672;37.764;2023-05-23T06:02:48;100432.06;;;17.84;100.00
26192;BME280;13935;55.672;37.764;2023-05-23T06:04:10;100426.31;;;17.94;100.00
26192;BME280;13935;55.672;37.764;2023-05-23T06:05:13;100432.59;;;18.02;100.00
26192;BME280;13935;55.672;37.764;2023-05-23T06:06:18;100418.97;;;18.04;100.00
26192;BME280;13935;55.672;37.764;2023-05-23T06:07:21;100428.47;;;18.10;100.00
26192;BME280;13935;55.672;37.764;2023-05-23T06:08:24;100415.94;;;18.18;100.00
26192;BME280;13935;55.672;37.764;2023-05-23T06:09:27;100424.50;;;18.07;100.00
26192;BME280;13935;55.672;37.764;2023-05-23T06:10:29;100419.72;;;18.34;100.00
26192;BME280;13935;55.672;37.764;2023-05-23T06:11:31;100424.41;;;18.41;100.00
26192;BME280;13935;55.672;37.764;2023-05-23T06:12:36;100415.63;;;18.39;100.00
26192;BME280;13935;55.672;37.764;2023-05-23T06:13:38;100415.25;;;18.60;100.00
26192;BME280;13935;55.672;37.764;2023-05-23T06:14:40;100415.25;;;18.60;100.00
26192;BME280;13935;55.672;37.764;2023-05-23T06:15:43;100418.19;;;18.75;100.00
26192;BME280;13935;55.672;37.764;2023-05-23T06:16:46;100407.75;;;18.76;100.00
26192;BME280;13935;55.672;37.764;2023-05-23T06:17:49;100419.81;;;18.73;100.00
26192;BME280;13935;55.672;37.764;2023-05-23T06:18:53;100412.81;;;18.39;100.00
26192;BME280;13935;55.672;37.764;2023-05-23T06:19:57;100406.34;;;18.64;100.00
26192;BME280;13935;55.672;37.764;2023-05-23T06:21:00;100406.88;;;18.79;100.00
26192;BME280;13935;55.672;37.764;2023-05-23T06:22:02;100403.72;;;18.77;100.00
26192;BME280;13935;55.672;37.764;2023-05-23T06:23:06;100413.22;;;18.83;100.00
26192;BME280;13935;55.672;37.764;2023-05-23T06:24:09;100406.69;;;18.89;100.00
26192;BME280;13935;55.672;37.764;2023-05-23T06:25:11;100403.41;;;18.94;100.00
26192;BME280;13935;55.672;37.764;2023-05-23T06:26:13;100402.97;;;18.96;100.00
26192;BME280;13935;55.672;37.764;2023-05-23T06:27:15;100400.81;;;19.03;100.00
26192;BME280;13935;55.672;37.764;2023-05-23T06:28:18;100400.09;;;18.99;100.00
26192;BME280;13935;55.672;37.764;2023-05-23T06:29:20;100400.75;;;19.07;100.00
26192;BME280;13935;55.672;37.764;2023-05-23T06:30:22;100401.28;;;19.21;100.00
26192;BME280;13935;55.672;37.764;2023-05-23T06:31:25;100394.44;;;19.22;100.00
26192;BME280;13935;55.672;37.764;2023-05-23T06:32:27;100397.41;;;19.15;100.00
26192;BME280;13935;55.672;37.764;2023-05-23T06:33:30;100393.28;;;19.20;100.00
26192;BME280;13935;55.672;37.764;2023-05-23T06:34:32;100387.41;;;19.34;100.00
26192;BME280;13935;55.672;37.764;2023-05-23T06:35:34;100388.88;;;19.38;100.00
26192;BME280;13935;55.672;37.764;2023-05-23T06:36:36;100394.41;;;19.61;100.00
26192;BME280;13935;55.672;37.764;2023-05-23T06:37:38;100391.38;;;19.71;100.00
26192;BME280;13935;55.672;37.764;2023-05-23T06:38:46;100379.31;;;19.55;100.00
26192;BME280;13935;55.672;37.764;2023-05-23T06:39:48;100383.94;;;19.81;100.00
26192;BME280;13935;55.672;37.764;2023-05-23T06:40:51;100376.91;;;19.89;100.00
26192;BME280;13935;55.672;37.764;2023-05-23T06:41:53;100375.56;;;19.97;100.00
26192;BME280;13935;55.672;37.764;2023-05-23T06:42:56;100381.53;;;19.99;100.00
26192;BME280;13935;55.672;37.764;2023-05-23T06:44:07;100381.88;;;20.01;100.00
26192;BME280;13935;55.672;37.764;2023-05-23T06:45:14;100379.25;;;20.25;100.00
26192;BME280;13935;55.672;37.764;2023-05-23T06:46:17;100371.69;;;20.38;99.92
26192;BME280;13935;55.672;37.764;2023-05-23T06:47:20;100371.50;;;20.61;99.03
26192;BME280;13935;55.672;37.764;2023-05-23T06:48:22;100374.13;;;20.84;97.11
26192;BME280;13935;55.672;37.764;2023-05-23T06:49:25;100377.16;;;21.18;95.34
26192;BME280;13935;55.672;37.764;2023-05-23T06:50:27;100382.59;;;21.25;93.00
26192;BME280;13935;55.672;37.764;2023-05-23T06:51:29;100368.91;;;21.52;89.02
26192;BME280;13935;55.672;37.764;2023-05-23T06:52:32;100375.56;;;21.45;89.67
26192;BME280;13935;55.672;37.764;2023-05-23T06:53:38;100371.91;;;21.60;88.55
26192;BME280;13935;55.672;37.764;2023-05-23T06:54:42;100367.81;;;21.61;90.77
26192;BME280;13935;55.672;37.764;2023-05-23T06:55:45;100365.59;;;21.81;89.09
26192;BME280;13935;55.672;37.764;2023-05-23T06:56:50;100366.50;;;21.78;88.36
26192;BME280;13935;55.672;37.764;2023-05-23T06:57:52;100367.28;;;21.66;87.80
26192;BME280;13935;55.672;37.764;2023-05-23T06:58:56;100372.56;;;22.14;86.46
26192;BME280;13935;55.672;37.764;2023-05-23T06:59:57;100360.50;;;22.38;84.71
26192;BME280;13935;55.672;37.764;2023-05-23T07:01:00;100355.53;;;22.30;83.14
26192;BME280;13935;55.672;37.764;2023-05-23T07:02:05;100358.81;;;22.16;84.53
26192;BME280;13935;55.672;37.764;2023-05-23T07:03:08;100360.63;;;22.35;83.47
26192;BME280;13935;55.672;37.764;2023-05-23T07:04:10;100365.00;;;22.24;84.54
26192;BME280;13935;55.672;37.764;2023-05-23T07:05:13;100361.97;;;21.93;86.41
26192;BME280;13935;55.672;37.764;2023-05-23T07:06:25;100357.44;;;22.21;86.20
26192;BME280;13935;55.672;37.764;2023-05-23T07:07:28;100358.56;;;22.23;86.62
26192;BME280;13935;55.672;37.764;2023-05-23T07:09:36;100355.53;;;22.30;83.31
26192;BME280;13935;55.672;37.764;2023-05-23T07:10:48;100349.84;;;22.55;83.58
26192;BME280;13935;55.672;37.764;2023-05-23T07:11:59;100355.19;;;22.40;82.61
26192;BME280;13935;55.672;37.764;2023-05-23T07:13:04;100356.81;;;22.29;82.91
26192;BME280;13935;55.672;37.764;2023-05-23T07:14:05;100353.72;;;22.36;81.69
26192;BME280;13935;55.672;37.764;2023-05-23T07:15:11;100354.16;;;22.47;82.12
26192;BME280;13935;55.672;37.764;2023-05-23T07:16:24;100352.81;;;22.39;82.42
26192;BME280;13935;55.672;37.764;2023-05-23T07:17:34;100352.69;;;22.76;81.73
26192;BME280;13935;55.672;37.764;2023-05-23T07:18:38;100353.06;;;22.44;81.69
26192;BME280;13935;55.672;37.764;2023-05-23T07:19:41;100358.06;;;22.62;82.14
26192;BME280;13935;55.672;37.764;2023-05-23T07:20:43;100360.81;;;22.53;80.70
26192;BME280;13935;55.672;37.764;2023-05-23T07:21:49;100359.22;;;22.52;81.25
26192;BME280;13935;55.672;37.764;2023-05-23T07:22:53;100357.00;;;22.22;82.36
26192;BME280;13935;55.672;37.764;2023-05-23T07:23:55;100370.09;;;22.28;82.87
26192;BME280;13935;55.672;37.764;2023-05-23T07:24:57;100361.72;;;22.25;83.54
26192;BME280;13935;55.672;37.764;2023-05-23T07:26:04;100358.69;;;22.44;81.73
26192;BME280;13935;55.672;37.764;2023-05-23T07:27:21;100359.69;;;22.50;83.19
26192;BME280;13935;55.672;37.764;2023-05-23T07:28:23;100353.09;;;22.66;82.78
26192;BME280;13935;55.672;37.764;2023-05-23T07:29:27;100365.03;;;22.70;81.47
26192;BME280;13935;55.672;37.764;2023-05-23T07:30:29;100366.94;;;23.28;78.99
26192;BME280;13935;55.672;37.764;2023-05-23T07:31:34;100376.53;;;23.52;75.85
26192;BME280;13935;55.672;37.764;2023-05-23T07:32:36;100372.69;;;23.67;75.12
26192;BME280;13935;55.672;37.764;2023-05-23T07:33:48;100367.94;;;24.25;73.31
26192;BME280;13935;55.672;37.764;2023-05-23T07:34:59;100373.41;;;24.67;68.94
26192;BME280;13935;55.672;37.764;2023-05-23T07:36:00;100367.75;;;24.94;69.52
26192;BME280;13935;55.672;37.764;2023-05-23T07:37:03;100375.31;;;24.97;67.33
26192;BME280;13935;55.672;37.764;2023-05-23T07:38:14;100376.53;;;25.59;64.50
26192;BME280;13935;55.672;37.764;2023-05-23T07:39:16;100375.91;;;25.55;63.75
26192;BME280;13935;55.672;37.764;2023-05-23T07:40:24;100370.31;;;25.96;60.80
26192;BME280;13935;55.672;37.764;2023-05-23T07:41:26;100366.84;;;25.92;60.24
26192;BME280;13935;55.672;37.764;2023-05-23T07:42:28;100370.81;;;25.77;59.83
26192;BME280;13935;55.672;37.764;2023-05-23T07:43:30;100374.66;;;25.47;60.69
26192;BME280;13935;55.672;37.764;2023-05-23T07:44:32;100368.41;;;25.25;62.17
26192;BME280;13935;55.672;37.764;2023-05-23T07:45:34;100379.41;;;25.05;63.28
26192;BME280;13935;55.672;37.764;2023-05-23T07:46:36;100376.25;;;24.85;64.31
26192;BME280;13935;55.672;37.764;2023-05-23T07:47:38;100373.75;;;25.05;64.44
26192;BME280;13935;55.672;37.764;2023-05-23T07:48:40;100372.78;;;24.63;66.12
26192;BME280;13935;55.672;37.764;2023-05-23T07:49:42;100375.72;;;24.51;66.53
26192;BME280;13935;55.672;37.764;2023-05-23T07:50:45;100386.09;;;24.45;67.43
26192;BME280;13935;55.672;37.764;2023-05-23T07:51:47;100379.59;;;24.36;68.71
26192;BME280;13935;55.672;37.764;2023-05-23T07:52:49;100376.84;;;24.45;69.05
26192;BME280;13935;55.672;37.764;2023-05-23T07:53:59;100388.66;;;24.70;68.26
26192;BME280;13935;55.672;37.764;2023-05-23T07:55:04;100383.41;;;24.42;70.47
26192;BME280;13935;55.672;37.764;2023-05-23T07:56:06;100389.03;;;24.33;71.12
26192;BME280;13935;55.672;37.764;2023-05-23T07:57:12;100386.78;;;24.19;71.61
26192;BME280;13935;55.672;37.764;2023-05-23T07:58:18;100393.66;;;24.09;73.32
26192;BME280;13935;55.672;37.764;2023-05-23T07:59:21;100392.44;;;24.19;73.89
26192;BME280;13935;55.672;37.764;2023-05-23T08:00:25;100387.34;;;24.05;74.12
26192;BME280;13935;55.672;37.764;2023-05-23T08:01:33;100384.63;;;23.92;75.17
26192;BME280;13935;55.672;37.764;2023-05-23T08:02:38;100388.66;;;24.13;72.81
26192;BME280;13935;55.672;37.764;2023-05-23T08:03:40;100384.22;;;24.03;73.55
26192;BME280;13935;55.672;37.764;2023-05-23T08:04:48;100388.88;;;24.36;71.94
26192;BME280;13935;55.672;37.764;2023-05-23T08:05:51;100378.13;;;24.70;70.03
26192;BME280;13935;55.672;37.764;2023-05-23T08:06:54;100391.19;;;24.68;70.38
26192;BME280;13935;55.672;37.764;2023-05-23T08:08:16;100384.44;;;24.74;69.24
26192;BME280;13935;55.672;37.764;2023-05-23T08:09:18;100378.78;;;24.92;69.67
26192;BME280;13935;55.672;37.764;2023-05-23T08:10:24;100377.53;;;25.29;67.49
26192;BME280;13935;55.672;37.764;2023-05-23T08:11:35;100378.94;;;25.07;67.87
26192;BME280;13935;55.672;37.764;2023-05-23T08:12:37;100375.66;;;25.17;67.48
26192;BME280;13935;55.672;37.764;2023-05-23T08:13:46;100372.09;;;25.67;65.30
26192;BME280;13935;55.672;37.764;2023-05-23T08:15:20;100373.09;;;25.46;65.32
26192;BME280;13935;55.672;37.764;2023-05-23T08:16:29;100378.53;;;25.85;65.64
26192;BME280;13935;55.672;37.764;2023-05-23T08:17:31;100380.13;;;25.68;64.00
26192;BME280;13935;55.672;37.764;2023-05-23T08:18:33;100381.41;;;25.76;64.00
26192;BME280;13935;55.672;37.764;2023-05-23T08:19:37;100379.03;;;25.75;64.05
26192;BME280;13935;55.672;37.764;2023-05-23T08:20:39;100374.56;;;25.92;64.02
26192;BME280;13935;55.672;37.764;2023-05-23T08:21:43;100383.06;;;25.92;63.68
26192;BME280;13935;55.672;37.764;2023-05-23T08:22:45;100375.81;;;25.23;66.60
26192;BME280;13935;55.672;37.764;2023-05-23T08:23:49;100382.06;;;24.73;69.75
26192;BME280;13935;55.672;37.764;2023-05-23T08:24:51;100375.91;;;24.65;71.35
26192;BME280;13935;55.672;37.764;2023-05-23T08:25:54;100376.25;;;24.76;72.65
26192;BME280;13935;55.672;37.764;2023-05-23T08:26:59;100375.59;;;24.54;72.73
26192;BME280;13935;55.672;37.764;2023-05-23T08:28:01;100374.31;;;24.47;72.87
26192;BME280;13935;55.672;37.764;2023-05-23T08:29:13;100373.41;;;24.58;73.97
26192;BME280;13935;55.672;37.764;2023-05-23T08:30:16;100376.47;;;24.34;74.97
26192;BME280;13935;55.672;37.764;2023-05-23T08:31:18;100375.91;;;24.08;76.34
26192;BME280;13935;55.672;37.764;2023-05-23T08:32:21;100381.06;;;24.01;76.81
26192;BME280;13935;55.672;37.764;2023-05-23T08:33:24;100372.09;;;23.72;79.15
26192;BME280;13935;55.672;37.764;2023-05-23T08:34:30;100374.81;;;23.54;81.08
26192;BME280;13935;55.672;37.764;2023-05-23T08:35:32;100384.72;;;23.80;80.46
26192;BME280;13935;55.672;37.764;2023-05-23T08:36:39;100383.63;;;23.56;81.38
26192;BME280;13935;55.672;37.764;2023-05-23T08:37:49;100375.91;;;23.26;83.18
26192;BME280;13935;55.672;37.764;2023-05-23T08:38:52;100375.81;;;23.17;84.33
26192;BME280;13935;55.672;37.764;2023-05-23T08:40:01;100377.06;;;23.16;86.09
26192;BME280;13935;55.672;37.764;2023-05-23T08:41:18;100380.06;;;23.00;86.76
26192;BME280;13935;55.672;37.764;2023-05-23T08:42:22;100371.78;;;22.85;88.72
26192;BME280;13935;55.672;37.764;2023-05-23T08:43:25;100378.41;;;22.57;91.47
26192;BME280;13935;55.672;37.764;2023-05-23T08:44:27;100365.66;;;22.52;92.86
26192;BME280;13935;55.672;37.764;2023-05-23T08:45:33;100373.22;;;22.43;94.21
26192;BME280;13935;55.672;37.764;2023-05-23T08:46:44;100362.47;;;22.63;94.58
26192;BME280;13935;55.672;37.764;2023-05-23T08:47:55;100367.09;;;22.57;95.00
26192;BME280;13935;55.672;37.764;2023-05-23T08:49:02;100375.50;;;22.35;95.86
26192;BME280;13935;55.672;37.764;2023-05-23T08:50:05;100371.00;;;22.13;99.75
26192;BME280;13935;55.672;37.764;2023-05-23T08:51:09;100372.34;;;21.84;100.00
26192;BME280;13935;55.672;37.764;2023-05-23T08:52:13;100374.47;;;21.92;100.00
26192;BME280;13935;55.672;37.764;2023-05-23T08:53:22;100370.53;;;21.90;100.00
26192;BME280;13935;55.672;37.764;2023-05-23T08:54:35;100372.44;;;21.80;100.00
26192;BME280;13935;55.672;37.764;2023-05-23T08:55:38;100382.31;;;21.48;100.00
26192;BME280;13935;55.672;37.764;2023-05-23T08:56:42;100387.44;;;21.24;100.00
26192;BME280;13935;55.672;37.764;2023-05-23T08:57:45;100377.84;;;21.22;100.00
26192;BME280;13935;55.672;37.764;2023-05-23T08:59:03;100381.56;;;21.19;100.00
26192;BME280;13935;55.672;37.764;2023-05-23T09:00:11;100390.00;;;20.90;100.00
26192;BME280;13935;55.672;37.764;2023-05-23T09:01:16;100393.81;;;20.84;100.00
26192;BME280;13935;55.672;37.764;2023-05-23T09:02:24;100400.19;;;21.00;100.00
26192;BME280;13935;55.672;37.764;2023-05-23T09:03:35;100392.91;;;20.87;100.00
26192;BME280;13935;55.672;37.764;2023-05-23T09:04:48;100391.91;;;20.49;100.00
26192;BME280;13935;55.672;37.764;2023-05-23T09:05:55;100398.81;;;20.61;100.00
26192;BME280;13935;55.672;37.764;2023-05-23T09:06:59;100402.34;;;20.81;100.00
26192;BME280;13935;55.672;37.764;2023-05-23T09:08:03;100396.81;;;20.45;100.00
26192;BME280;13935;55.672;37.764;2023-05-23T09:09:05;100399.91;;;20.51;100.00
26192;BME280;13935;55.672;37.764;2023-05-23T09:10:09;100403.16;;;20.49;100.00
26192;BME280;13935;55.672;37.764;2023-05-23T09:11:11;100402.59;;;20.38;100.00
26192;BME280;13935;55.672;37.764;2023-05-23T09:12:16;100403.59;;;20.32;100.00
26192;BME280;13935;55.672;37.764;2023-05-23T09:13:20;100409.56;;;20.18;100.00
26192;BME280;13935;55.672;37.764;2023-05-23T09:14:25;100417.91;;;20.06;100.00
26192;BME280;13935;55.672;37.764;2023-05-23T09:15:32;100411.22;;;19.80;100.00
26192;BME280;13935;55.672;37.764;2023-05-23T09:16:34;100412.03;;;19.81;100.00
26192;BME280;13935;55.672;37.764;2023-05-23T09:17:43;100410.84;;;19.98;100.00
26192;BME280;13935;55.672;37.764;2023-05-23T09:18:46;100420.25;;;20.07;100.00
26192;BME280;13935;55.672;37.764;2023-05-23T09:19:50;100407.53;;;20.03;100.00
26192;BME280;13935;55.672;37.764;2023-05-23T09:21:11;100413.31;;;19.96;100.00
26192;BME280;13935;55.672;37.764;2023-05-23T09:22:24;100409.91;;;19.85;100.00
26192;BME280;13935;55.672;37.764;2023-05-23T09:23:38;100410.50;;;19.96;100.00
26192;BME280;13935;55.672;37.764;2023-05-23T09:24:42;100412.56;;;19.92;100.00
26192;BME280;13935;55.672;37.764;2023-05-23T09:25:45;100406.09;;;19.95;100.00
26192;BME280;13935;55.672;37.764;2023-05-23T09:26:49;100418.25;;;20.23;100.00
26192;BME280;13935;55.672;37.764;2023-05-23T09:27:51;100413.06;;;20.06;100.00
26192;BME280;13935;55.672;37.764;2023-05-23T09:28:58;100414.91;;;20.12;100.00
26192;BME280;13935;55.672;37.764;2023-05-23T09:30:07;100419.03;;;20.08;100.00
26192;BME280;13935;55.672;37.764;2023-05-23T09:31:09;100416.94;;;20.12;100.00
26192;BME280;13935;55.672;37.764;2023-05-23T09:32:13;100422.72;;;20.05;100.00
26192;BME280;13935;55.672;37.764;2023-05-23T09:33:15;100420.88;;;19.99;100.00
26192;BME280;13935;55.672;37.764;2023-05-23T09:34:18;100426.00;;;19.65;100.00
26192;BME280;13935;55.672;37.764;2023-05-23T09:35:21;100419.47;;;19.71;100.00
26192;BME280;13935;55.672;37.764;2023-05-23T09:36:26;100421.97;;;19.66;100.00
26192;BME280;13935;55.672;37.764;2023-05-23T09:37:38;100421.94;;;19.85;100.00
26192;BME280;13935;55.672;37.764;2023-05-23T09:38:46;100421.53;;;19.87;100.00
26192;BME280;13935;55.672;37.764;2023-05-23T09:39:53;100413.91;;;19.68;100.00
26192;BME280;13935;55.672;37.764;2023-05-23T09:40:55;100419.56;;;19.84;100.00
26192;BME280;13935;55.672;37.764;2023-05-23T09:41:59;100416.28;;;19.69;100.00
26192;BME280;13935;55.672;37.764;2023-05-23T09:43:03;100421.47;;;19.71;100.00
26192;BME280;13935;55.672;37.764;2023-05-23T09:44:07;100415.66;;;19.97;100.00
26192;BME280;13935;55.672;37.764;2023-05-23T09:45:14;100421.84;;;19.73;100.00
26192;BME280;13935;55.672;37.764;2023-05-23T09:46:19;100419.72;;;19.77;100.00
26192;BME280;13935;55.672;37.764;2023-05-23T09:47:22;100423.72;;;19.60;100.00
26192;BME280;13935;55.672;37.764;2023-05-23T09:48:28;100419.13;;;19.85;100.00
26192;BME280;13935;55.672;37.764;2023-05-23T09:49:32;100408.16;;;19.75;100.00
26192;BME280;13935;55.672;37.764;2023-05-23T09:50:34;100420.44;;;19.81;100.00
26192;BME280;13935;55.672;37.764;2023-05-23T09:51:37;100414.25;;;19.89;100.00
26192;BME280;13935;55.672;37.764;2023-05-23T09:52:39;100410.69;;;19.85;100.00
26192;BME280;13935;55.672;37.764;2023-05-23T09:53:45;100412.97;;;19.74;100.00
26192;BME280;13935;55.672;37.764;2023-05-23T09:54:47;100415.97;;;19.83;100.00
26192;BME280;13935;55.672;37.764;2023-05-23T09:55:53;100414.31;;;19.86;100.00
26192;BME280;13935;55.672;37.764;2023-05-23T09:56:57;100415.38;;;19.92;100.00
26192;BME280;13935;55.672;37.764;2023-05-23T09:58:02;100416.31;;;20.05;100.00
26192;BME280;13935;55.672;37.764;2023-05-23T09:59:05;100414.53;;;19.95;100.00
26192;BME280;13935;55.672;37.764;2023-05-23T10:00:10;100410.84;;;19.98;100.00
26192;BME280;13935;55.672;37.764;2023-05-23T10:01:17;100417.44;;;20.07;100.00
26192;BME280;13935;55.672;37.764;2023-05-23T10:02:39;100410.75;;;19.66;100.00
26192;BME280;13935;55.672;37.764;2023-05-23T10:04:52;100417.53;;;19.49;100.00
26192;BME280;13935;55.672;37.764;2023-05-23T10:06:06;100410.53;;;19.57;100.00
26192;BME280;13935;55.672;37.764;2023-05-23T10:07:18;100413.28;;;19.41;100.00
26192;BME280;13935;55.672;37.764;2023-05-23T10:08:26;100407.72;;;19.57;100.00
26192;BME280;13935;55.672;37.764;2023-05-23T10:09:35;100413.91;;;19.68;100.00
26192;BME280;13935;55.672;37.764;2023-05-23T10:13:04;100417.06;;;19.70;100.00
26192;BME280;13935;55.672;37.764;2023-05-23T10:14:08;100419.53;;;19.68;100.00
26192;BME280;13935;55.672;37.764;2023-05-23T10:15:14;100418.19;;;19.56;100.00
26192;BME280;13935;55.672;37.764;2023-05-23T10:16:19;100417.06;;;19.70;100.00
26192;BME280;13935;55.672;37.764;2023-05-23T10:17:44;100421.03;;;19.72;100.00
26192;BME280;13935;55.672;37.764;2023-05-23T10:18:51;100419.97;;;19.47;100.00
26192;BME280;13935;55.672;37.764;2023-05-23T10:20:10;100422.13;;;19.59;100.00
26192;BME280;13935;55.672;37.764;2023-05-23T10:21:18;100421.44;;;19.55;100.00
26192;BME280;13935;55.672;37.764;2023-05-23T10:22:25;100420.28;;;19.52;100.00
26192;BME280;13935;55.672;37.764;2023-05-23T10:23:28;100427.13;;;19.51;100.00
26192;BME280;13935;55.672;37.764;2023-05-23T10:24:30;100439.41;;;19.38;100.00
26192;BME280;13935;55.672;37.764;2023-05-23T10:25:33;100432.16;;;19.40;100.00
26192;BME280;13935;55.672;37.764;2023-05-23T10:26:38;100431.38;;;19.21;100.00
26192;BME280;13935;55.672;37.764;2023-05-23T10:27:40;100428.09;;;19.41;100.00
26192;BME280;13935;55.672;37.764;2023-05-23T10:28:44;100432.00;;;19.28;100.00
26192;BME280;13935;55.672;37.764;2023-05-23T10:29:48;100427.47;;;19.34;100.00
26192;BME280;13935;55.672;37.764;2023-05-23T10:30:50;100430.78;;;19.29;100.00
26192;BME280;13935;55.672;37.764;2023-05-23T10:31:53;100435.75;;;19.41;100.00
26192;BME280;13935;55.672;37.764;2023-05-23T10:32:56;100435.44;;;19.35;100.00
26192;BME280;13935;55.672;37.764;2023-05-23T10:34:07;100439.00;;;19.39;100.00
26192;BME280;13935;55.672;37.764;2023-05-23T10:36:33;100423.63;;;19.44;100.00
26192;BME280;13935;55.672;37.764;2023-05-23T10:37:44;100427.09;;;19.32;100.00
26192;BME280;13935;55.672;37.764;2023-05-23T10:39:15;100435.75;;;19.41;100.00
26192;BME280;13935;55.672;37.764;2023-05-23T10:40:45;100441.31;;;19.25;100.00
26192;BME280;13935;55.672;37.764;2023-05-23T10:41:55;100433.50;;;19.13;100.00
26192;BME280;13935;55.672;37.764;2023-05-23T10:44:28;100441.56;;;19.11;100.00
26192;BME280;13935;55.672;37.764;2023-05-23T10:45:38;100435.97;;;19.11;100.00
26192;BME280;13935;55.672;37.764;2023-05-23T10:46:56;100433.44;;;18.94;100.00
26192;BME280;13935;55.672;37.764;2023-05-23T10:48:18;100442.72;;;19.14;100.00
26192;BME280;13935;55.672;37.764;2023-05-23T10:49:21;100439.09;;;19.13;100.00
26192;BME280;13935;55.672;37.764;2023-05-23T10:50:37;100436.81;;;19.08;100.00
26192;BME280;13935;55.672;37.764;2023-05-23T10:51:40;100436.91;;;19.01;100.00
26192;BME280;13935;55.672;37.764;2023-05-23T10:52:42;100438.00;;;19.07;100.00
26192;BME280;13935;55.672;37.764;2023-05-23T10:53:52;100433.94;;;19.12;100.00
26192;BME280;13935;55.672;37.764;2023-05-23T10:54:55;100438.41;;;19.09;100.00
26192;BME280;13935;55.672;37.764;2023-05-23T10:55:57;100436.06;;;19.04;100.00
26192;BME280;13935;55.672;37.764;2023-05-23T10:57:03;100440.97;;;19.00;100.00
26192;BME280;13935;55.672;37.764;2023-05-23T10:58:17;100436.44;;;18.83;100.00
26192;BME280;13935;55.672;37.764;2023-05-23T10:59:21;100435.84;;;18.72;100.00
26192;BME280;13935;55.672;37.764;2023-05-23T11:00:23;100436.31;;;18.90;100.00
26192;BME280;13935;55.672;37.764;2023-05-23T11:01:26;100438.75;;;18.88;100.00
26192;BME280;13935;55.672;37.764;2023-05-23T11:02:28;100442.59;;;18.98;100.00